sensor_id;sensor_type;location;lat;lon;timestamp;pressure;altitude;pressure_sealevel;temperature;humidity
71889;BME280;59762;49.998;14.858;2023-04-28T00:00:19;97618.50;;;5.12;67.71
71889;BME280;59762;49.998;14.858;2023-04-28T00:03:05;97617.53;;;5.13;67.64
71889;BME280;59762;49.998;14.858;2023-04-28T00:05:30;97613.34;;;5.11;67.97
71889;BME280;59762;49.998;14.858;2023-04-28T00:07:56;97612.47;;;5.10;67.91
71889;BME280;59762;49.998;14.858;2023-04-28T00:10:22;97610.81;;;5.09;68.16
71889;BME280;59762;49.998;14.858;2023-04-28T00:12:47;97610.91;;;5.08;68.45
71889;BME280;59762;49.998;14.858;2023-04-28T00:15:13;97614.75;;;5.04;68.40
71889;BME280;59762;49.998;14.858;2023-04-28T00:17:39;97609.84;;;4.99;68.39
71889;BME280;59762;49.998;14.858;2023-04-28T00:20:05;97613.19;;;5.01;68.40
71889;BME280;59762;49.998;14.858;2023-04-28T00:22:31;97614.16;;;5.00;68.32
71889;BME280;59762;49.998;14.858;2023-04-28T00:24:56;97601.91;;;4.99;69.25
71889;BME280;59762;49.998;14.858;2023-04-28T00:27:22;97602.00;;;5.09;68.22
71889;BME280;59762;49.998;14.858;2023-04-28T00:29:47;97604.75;;;5.07;68.42
71889;BME280;59762;49.998;14.858;2023-04-28T00:32:13;97606.34;;;5.10;68.58
71889;BME280;59762;49.998;14.858;2023-04-28T00:34:39;97606.47;;;5.19;67.97
71889;BME280;59762;49.998;14.858;2023-04-28T00:37:05;97600.31;;;5.19;69.19
71889;BME280;59762;49.998;14.858;2023-04-28T00:39:30;97596.34;;;5.24;68.79
71889;BME280;59762;49.998;14.858;2023-04-28T00:41:56;97600.66;;;5.25;67.86
71889;BME280;59762;49.998;14.858;2023-04-28T00:44:22;97605.97;;;5.25;68.79
71889;BME280;59762;49.998;14.858;2023-04-28T00:46:48;97593.09;;;5.32;67.64
71889;BME280;59762;49.998;14.858;2023-04-28T00:49:14;97599.63;;;5.28;69.75
71889;BME280;59762;49.998;14.858;2023-04-28T00:51:40;97591.41;;;5.31;68.59
71889;BME280;59762;49.998;14.858;2023-04-28T00:54:06;97581.28;;;5.36;68.03
71889;BME280;59762;49.998;14.858;2023-04-28T00:56:32;97586.72;;;5.34;68.10
71889;BME280;59762;49.998;14.858;2023-04-28T00:58:58;97586.72;;;5.34;68.43
71889;BME280;59762;49.998;14.858;2023-04-28T01:01:24;97582.66;;;5.30;68.88
71889;BME280;59762;49.998;14.858;2023-04-28T01:03:49;97578.06;;;5.32;68.12
71889;BME280;59762;49.998;14.858;2023-04-28T01:06:15;97581.06;;;5.39;67.88
71889;BME280;59762;49.998;14.858;2023-04-28T01:08:41;97580.69;;;5.32;68.26
71889;BME280;59762;49.998;14.858;2023-04-28T01:11:08;97576.25;;;5.33;67.98
71889;BME280;59762;49.998;14.858;2023-04-28T01:13:39;97575.06;;;5.37;68.04
71889;BME280;59762;49.998;14.858;2023-04-28T01:16:08;97574.44;;;5.33;67.96
71889;BME280;59762;49.998;14.858;2023-04-28T01:18:34;97574.69;;;5.30;68.40
71889;BME280;59762;49.998;14.858;2023-04-28T01:20:59;97570.72;;;5.25;68.84
71889;BME280;59762;49.998;14.858;2023-04-28T01:23:25;97577.59;;;5.27;68.88
71889;BME280;59762;49.998;14.858;2023-04-28T01:25:51;97572.28;;;5.27;69.03
71889;BME280;59762;49.998;14.858;2023-04-28T01:28:16;97568.44;;;5.31;68.16
71889;BME280;59762;49.998;14.858;2023-04-28T01:30:42;97563.84;;;5.33;68.29
71889;BME280;59762;49.998;14.858;2023-04-28T01:33:08;97568.44;;;5.31;68.32
71889;BME280;59762;49.998;14.858;2023-04-28T01:35:34;97554.69;;;5.37;68.25
71889;BME280;59762;49.998;14.858;2023-04-28T01:37:59;97558.78;;;5.41;67.89
71889;BME280;59762;49.998;14.858;2023-04-28T01:40:25;97555.66;;;5.36;68.49
71889;BME280;59762;49.998;14.858;2023-04-28T01:42:51;97554.09;;;5.34;67.99
71889;BME280;59762;49.998;14.858;2023-04-28T01:45:17;97553.13;;;5.35;68.64
71889;BME280;59762;49.998;14.858;2023-04-28T01:47:42;97550.59;;;5.33;68.36
71889;BME280;59762;49.998;14.858;2023-04-28T01:50:08;97555.66;;;5.36;67.89
71889;BME280;59762;49.998;14.858;2023-04-28T01:52:34;97548.56;;;5.37;67.99
71889;BME280;59762;49.998;14.858;2023-04-28T01:55:00;97545.59;;;5.30;68.48
71889;BME280;59762;49.998;14.858;2023-04-28T01:57:26;97542.19;;;5.28;68.26
71889;BME280;59762;49.998;14.858;2023-04-28T01:59:53;97551.34;;;5.24;69.90
71889;BME280;59762;49.998;14.858;2023-04-28T02:02:19;97551.63;;;5.21;68.80
71889;BME280;59762;49.998;14.858;2023-04-28T02:04:45;97549.19;;;5.18;69.01
71889;BME280;59762;49.998;14.858;2023-04-28T02:07:11;97547.63;;;5.16;69.06
71889;BME280;59762;49.998;14.858;2023-04-28T02:09:36;97551.25;;;5.15;68.91
71889;BME280;59762;49.998;14.858;2023-04-28T02:12:02;97548.59;;;5.15;69.70
71889;BME280;59762;49.998;14.858;2023-04-28T02:14:29;97546.31;;;5.21;68.77
71889;BME280;59762;49.998;14.858;2023-04-28T02:16:57;97539.31;;;5.20;69.16
71889;BME280;59762;49.998;14.858;2023-04-28T02:19:23;97534.13;;;5.19;69.06
71889;BME280;59762;49.998;14.858;2023-04-28T02:21:49;97531.25;;;5.22;68.64
71889;BME280;59762;49.998;14.858;2023-04-28T02:24:14;97543.53;;;5.23;68.71
71889;BME280;59762;49.998;14.858;2023-04-28T02:26:40;97544.13;;;5.26;68.60
71889;BME280;59762;49.998;14.858;2023-04-28T02:29:06;97533.91;;;5.22;68.98
71889;BME280;59762;49.998;14.858;2023-04-28T02:31:32;97543.41;;;5.24;68.86
71889;BME280;59762;49.998;14.858;2023-04-28T02:33:57;97537.53;;;5.21;69.05
71889;BME280;59762;49.998;14.858;2023-04-28T02:36:23;97543.66;;;5.21;68.21
71889;BME280;59762;49.998;14.858;2023-04-28T02:38:49;97539.44;;;5.19;68.82
71889;BME280;59762;49.998;14.858;2023-04-28T02:41:14;97539.19;;;5.22;68.56
71889;BME280;59762;49.998;14.858;2023-04-28T02:43:41;97538.22;;;5.23;68.45
71889;BME280;59762;49.998;14.858;2023-04-28T02:46:06;97541.03;;;5.21;69.16
71889;BME280;59762;49.998;14.858;2023-04-28T02:48:33;97540.75;;;5.24;69.23
71889;BME280;59762;49.998;14.858;2023-04-28T02:51:00;97540.88;;;5.23;69.53
71889;BME280;59762;49.998;14.858;2023-04-28T02:53:27;97546.78;;;5.26;68.79
71889;BME280;59762;49.998;14.858;2023-04-28T02:55:52;97546.91;;;5.25;68.87
71889;BME280;59762;49.998;14.858;2023-04-28T02:58:19;97548.22;;;5.30;68.87
71889;BME280;59762;49.998;14.858;2023-04-28T03:00:45;97544.84;;;5.28;68.65
71889;BME280;59762;49.998;14.858;2023-04-28T03:03:11;97554.47;;;5.29;68.48
71889;BME280;59762;49.998;14.858;2023-04-28T03:05:36;97552.56;;;5.31;68.03
71889;BME280;59762;49.998;14.858;2023-04-28T03:08:02;97546.66;;;5.28;68.56
71889;BME280;59762;49.998;14.858;2023-04-28T03:10:28;97543.88;;;5.29;68.72
71889;BME280;59762;49.998;14.858;2023-04-28T03:12:54;97548.34;;;5.29;68.43
71889;BME280;59762;49.998;14.858;2023-04-28T03:15:19;97552.91;;;5.27;69.01
71889;BME280;59762;49.998;14.858;2023-04-28T03:17:45;97544.97;;;5.27;68.67
71889;BME280;59762;49.998;14.858;2023-04-28T03:20:11;97539.31;;;5.20;68.81
71889;BME280;59762;49.998;14.858;2023-04-28T03:22:37;97540.06;;;5.22;68.90
71889;BME280;59762;49.998;14.858;2023-04-28T03:25:03;97537.53;;;5.21;69.04
71889;BME280;59762;49.998;14.858;2023-04-28T03:27:30;97532.22;;;5.21;69.18
71889;BME280;59762;49.998;14.858;2023-04-28T03:29:56;97530.44;;;5.21;69.21
71889;BME280;59762;49.998;14.858;2023-04-28T03:32:21;97523.91;;;5.25;69.15
71889;BME280;59762;49.998;14.858;2023-04-28T03:34:47;97522.00;;;5.27;68.47
71889;BME280;59762;49.998;14.858;2023-04-28T03:37:13;97515.47;;;5.31;68.51
71889;BME280;59762;49.998;14.858;2023-04-28T03:39:38;97511.16;;;5.30;69.13
71889;BME280;59762;49.998;14.858;2023-04-28T03:42:04;97516.94;;;5.35;68.43
71889;BME280;59762;49.998;14.858;2023-04-28T03:44:30;97515.25;;;5.34;68.76
71889;BME280;59762;49.998;14.858;2023-04-28T03:46:56;97507.88;;;5.38;68.40
71889;BME280;59762;49.998;14.858;2023-04-28T03:49:21;97515.84;;;5.38;68.10
71889;BME280;59762;49.998;14.858;2023-04-28T03:51:47;97505.94;;;5.40;68.28
71889;BME280;59762;49.998;14.858;2023-04-28T03:54:15;97502.47;;;5.39;69.16
71889;BME280;59762;49.998;14.858;2023-04-28T03:56:41;97501.84;;;5.47;68.12
71889;BME280;59762;49.998;14.858;2023-04-28T03:59:07;97503.75;;;5.45;68.42
71889;BME280;59762;49.998;14.858;2023-04-28T04:01:36;97508.69;;;5.49;67.63
71889;BME280;59762;49.998;14.858;2023-04-28T04:04:01;97513.75;;;5.52;67.89
71889;BME280;59762;49.998;14.858;2023-04-28T04:06:27;97517.09;;;5.54;67.92
71889;BME280;59762;49.998;14.858;2023-04-28T04:08:53;97515.19;;;5.56;67.70
71889;BME280;59762;49.998;14.858;2023-04-28T04:11:19;97517.69;;;5.58;68.32
71889;BME280;59762;49.998;14.858;2023-04-28T04:13:45;97516.47;;;5.62;67.71
71889;BME280;59762;49.998;14.858;2023-04-28T04:16:10;97514.78;;;5.61;67.90
71889;BME280;59762;49.998;14.858;2023-04-28T04:18:36;97510.47;;;5.60;68.18
71889;BME280;59762;49.998;14.858;2023-04-28T04:21:02;97519.84;;;5.64;67.88
71889;BME280;59762;49.998;14.858;2023-04-28T04:23:28;97518.03;;;5.64;67.60
71889;BME280;59762;49.998;14.858;2023-04-28T04:25:53;97514.03;;;5.70;67.95
71889;BME280;59762;49.998;14.858;2023-04-28T04:28:19;97511.50;;;5.68;68.25
71889;BME280;59762;49.998;14.858;2023-04-28T04:30:45;97517.16;;;5.75;67.53
71889;BME280;59762;49.998;14.858;2023-04-28T04:33:11;97513.19;;;5.80;66.87
71889;BME280;59762;49.998;14.858;2023-04-28T04:35:36;97514.75;;;5.83;67.45
71889;BME280;59762;49.998;14.858;2023-04-28T04:38:02;97507.53;;;5.85;67.33
71889;BME280;59762;49.998;14.858;2023-04-28T04:40:28;97518.34;;;5.93;67.25
71889;BME280;59762;49.998;14.858;2023-04-28T04:42:53;97507.00;;;5.91;66.39
71889;BME280;59762;49.998;14.858;2023-04-28T04:45:19;97496.28;;;5.92;66.86
71889;BME280;59762;49.998;14.858;2023-04-28T04:47:45;97494.59;;;5.91;67.34
71889;BME280;59762;49.998;14.858;2023-04-28T04:50:11;97493.50;;;5.94;67.39
71889;BME280;59762;49.998;14.858;2023-04-28T04:52:37;97492.97;;;6.00;67.29
71889;BME280;59762;49.998;14.858;2023-04-28T04:55:03;97489.34;;;6.01;67.00
71889;BME280;59762;49.998;14.858;2023-04-28T04:57:29;97486.91;;;6.09;66.95
71889;BME280;59762;49.998;14.858;2023-04-28T04:59:54;97487.97;;;6.17;66.44
71889;BME280;59762;49.998;14.858;2023-04-28T05:02:20;97484.09;;;6.21;68.18
71889;BME280;59762;49.998;14.858;2023-04-28T05:04:46;97470.41;;;6.26;66.31
71889;BME280;59762;49.998;14.858;2023-04-28T05:07:12;97479.78;;;6.30;66.41
71889;BME280;59762;49.998;14.858;2023-04-28T05:09:38;97486.16;;;6.38;66.28
71889;BME280;59762;49.998;14.858;2023-04-28T05:12:04;97481.66;;;6.39;66.44
71889;BME280;59762;49.998;14.858;2023-04-28T05:14:30;97486.31;;;6.46;66.43
71889;BME280;59762;49.998;14.858;2023-04-28T05:16:55;97486.09;;;6.59;66.26
71889;BME280;59762;49.998;14.858;2023-04-28T05:19:22;97494.50;;;6.64;65.92
71889;BME280;59762;49.998;14.858;2023-04-28T05:21:48;97487.72;;;6.71;65.71
71889;BME280;59762;49.998;14.858;2023-04-28T05:24:15;97481.41;;;7.02;64.33
71889;BME280;59762;49.998;14.858;2023-04-28T05:26:41;97489.41;;;7.21;63.05
71889;BME280;59762;49.998;14.858;2023-04-28T05:29:07;97483.91;;;7.62;62.51
71889;BME280;59762;49.998;14.858;2023-04-28T05:31:32;97489.63;;;8.05;61.02
71889;BME280;59762;49.998;14.858;2023-04-28T05:33:58;97487.44;;;8.75;59.48
71889;BME280;59762;49.998;14.858;2023-04-28T05:36:24;97485.94;;;8.63;59.14
71889;BME280;59762;49.998;14.858;2023-04-28T05:38:50;97480.31;;;8.66;58.87
71889;BME280;59762;49.998;14.858;2023-04-28T05:41:16;97480.66;;;8.90;58.37
71889;BME280;59762;49.998;14.858;2023-04-28T05:43:41;97479.00;;;9.16;57.56
71889;BME280;59762;49.998;14.858;2023-04-28T05:46:07;97466.16;;;9.29;57.40
71889;BME280;59762;49.998;14.858;2023-04-28T05:48:33;97462.56;;;9.83;56.56
71889;BME280;59762;49.998;14.858;2023-04-28T05:50:58;97461.97;;;9.71;56.19
71889;BME280;59762;49.998;14.858;2023-04-28T05:53:24;97449.16;;;9.75;56.50
71889;BME280;59762;49.998;14.858;2023-04-28T05:55:50;97466.94;;;9.39;57.46
71889;BME280;59762;49.998;14.858;2023-04-28T05:58:16;97460.44;;;8.97;58.20
71889;BME280;59762;49.998;14.858;2023-04-28T06:00:42;97464.41;;;8.84;59.58
71889;BME280;59762;49.998;14.858;2023-04-28T06:03:07;97464.91;;;8.70;59.70
71889;BME280;59762;49.998;14.858;2023-04-28T06:05:35;97466.19;;;9.20;58.27
71889;BME280;59762;49.998;14.858;2023-04-28T06:08:01;97470.91;;;9.53;57.04
71889;BME280;59762;49.998;14.858;2023-04-28T06:10:27;97471.00;;;9.61;57.21
71889;BME280;59762;49.998;14.858;2023-04-28T06:12:53;97464.16;;;9.76;57.58
71889;BME280;59762;49.998;14.858;2023-04-28T06:15:19;97462.09;;;9.70;57.68
71889;BME280;59762;49.998;14.858;2023-04-28T06:17:45;97456.31;;;9.92;56.36
71889;BME280;59762;49.998;14.858;2023-04-28T06:20:11;97447.78;;;9.71;57.49
71889;BME280;59762;49.998;14.858;2023-04-28T06:22:39;97448.47;;;9.90;57.44
71889;BME280;59762;49.998;14.858;2023-04-28T06:25:05;97445.34;;;10.12;56.19
71889;BME280;59762;49.998;14.858;2023-04-28T06:27:31;97443.69;;;10.37;56.50
71889;BME280;59762;49.998;14.858;2023-04-28T06:29:57;97438.41;;;10.45;56.72
71889;BME280;59762;49.998;14.858;2023-04-28T06:32:23;97430.66;;;10.59;56.83
71889;BME280;59762;49.998;14.858;2023-04-28T06:34:49;97435.69;;;10.62;56.79
71889;BME280;59762;49.998;14.858;2023-04-28T06:37:15;97437.06;;;10.74;56.51
71889;BME280;59762;49.998;14.858;2023-04-28T06:39:40;97443.31;;;10.83;57.17
71889;BME280;59762;49.998;14.858;2023-04-28T06:42:06;97451.44;;;11.07;54.65
71889;BME280;59762;49.998;14.858;2023-04-28T06:44:32;97436.88;;;11.43;54.77
71889;BME280;59762;49.998;14.858;2023-04-28T06:46:59;97438.16;;;11.80;54.70
71889;BME280;59762;49.998;14.858;2023-04-28T06:49:24;97440.25;;;11.53;53.12
71889;BME280;59762;49.998;14.858;2023-04-28T06:51:50;97437.66;;;11.77;52.40
71889;BME280;59762;49.998;14.858;2023-04-28T06:54:16;97430.78;;;11.82;52.22
71889;BME280;59762;49.998;14.858;2023-04-28T06:56:42;97434.50;;;11.89;53.63
71889;BME280;59762;49.998;14.858;2023-04-28T06:59:08;97419.63;;;11.95;51.96
71889;BME280;59762;49.998;14.858;2023-04-28T07:01:34;97424.63;;;12.30;51.11
71889;BME280;59762;49.998;14.858;2023-04-28T07:04:00;97432.16;;;12.18;49.90
71889;BME280;59762;49.998;14.858;2023-04-28T07:06:25;97424.28;;;12.41;50.58
71889;BME280;59762;49.998;14.858;2023-04-28T07:08:52;97424.47;;;12.15;50.67
71889;BME280;59762;49.998;14.858;2023-04-28T07:11:18;97425.28;;;12.48;50.30
71889;BME280;59762;49.998;14.858;2023-04-28T07:13:43;97430.31;;;12.27;49.33
71889;BME280;59762;49.998;14.858;2023-04-28T07:16:14;97430.63;;;12.56;49.90
71889;BME280;59762;49.998;14.858;2023-04-28T07:18:39;97427.72;;;12.73;49.56
71889;BME280;59762;49.998;14.858;2023-04-28T07:21:05;97424.00;;;12.90;48.94
71889;BME280;59762;49.998;14.858;2023-04-28T07:23:31;97414.56;;;13.18;50.07
71889;BME280;59762;49.998;14.858;2023-04-28T07:25:57;97414.72;;;13.47;48.46
71889;BME280;59762;49.998;14.858;2023-04-28T07:28:23;97409.53;;;13.46;47.17
71889;BME280;59762;49.998;14.858;2023-04-28T07:30:48;97408.28;;;13.87;48.37
71889;BME280;59762;49.998;14.858;2023-04-28T07:33:14;97405.19;;;14.20;48.54
71889;BME280;59762;49.998;14.858;2023-04-28T07:35:40;97400.97;;;14.18;47.54
71889;BME280;59762;49.998;14.858;2023-04-28T07:38:05;97397.53;;;13.87;47.27
71889;BME280;59762;49.998;14.858;2023-04-28T07:40:31;97404.38;;;13.67;46.87
71889;BME280;59762;49.998;14.858;2023-04-28T07:42:57;97403.47;;;13.52;47.30
71889;BME280;59762;49.998;14.858;2023-04-28T07:45:23;97396.22;;;13.83;47.44
71889;BME280;59762;49.998;14.858;2023-04-28T07:47:48;97397.44;;;14.17;47.29
71889;BME280;59762;49.998;14.858;2023-04-28T07:50:14;97387.44;;;14.34;47.57
71889;BME280;59762;49.998;14.858;2023-04-28T07:52:40;97393.13;;;14.53;46.95
71889;BME280;59762;49.998;14.858;2023-04-28T07:55:06;97402.16;;;14.23;47.41
71889;BME280;59762;49.998;14.858;2023-04-28T07:57:32;97394.69;;;14.48;47.01
71889;BME280;59762;49.998;14.858;2023-04-28T07:59:57;97391.63;;;14.36;48.23
71889;BME280;59762;49.998;14.858;2023-04-28T08:02:23;97384.41;;;14.51;47.17
71889;BME280;59762;49.998;14.858;2023-04-28T08:04:50;97380.88;;;14.14;47.75
71889;BME280;59762;49.998;14.858;2023-04-28T08:07:16;97376.13;;;14.38;48.09
71889;BME280;59762;49.998;14.858;2023-04-28T08:09:41;97380.53;;;14.39;48.02
71889;BME280;59762;49.998;14.858;2023-04-28T08:12:11;97378.41;;;13.90;47.97
71889;BME280;59762;49.998;14.858;2023-04-28T08:14:37;97384.56;;;14.21;47.70
71889;BME280;59762;49.998;14.858;2023-04-28T08:17:03;97371.50;;;14.32;46.17
71889;BME280;59762;49.998;14.858;2023-04-28T08:19:29;97373.84;;;14.50;45.86
71889;BME280;59762;49.998;14.858;2023-04-28T08:21:55;97374.31;;;15.12;44.88
71889;BME280;59762;49.998;14.858;2023-04-28T08:24:21;97379.72;;;14.68;46.40
71889;BME280;59762;49.998;14.858;2023-04-28T08:26:46;97372.66;;;14.96;45.21
71889;BME280;59762;49.998;14.858;2023-04-28T08:29:12;97372.09;;;14.57;45.21
71889;BME280;59762;49.998;14.858;2023-04-28T08:31:38;97364.50;;;14.89;44.89
71889;BME280;59762;49.998;14.858;2023-04-28T08:34:03;97361.97;;;15.17;45.30
71889;BME280;59762;49.998;14.858;2023-04-28T08:36:29;97360.19;;;15.39;45.46
71889;BME280;59762;49.998;14.858;2023-04-28T08:38:57;97353.50;;;15.49;43.71
71889;BME280;59762;49.998;14.858;2023-04-28T08:41:24;97360.56;;;15.92;44.10
71889;BME280;59762;49.998;14.858;2023-04-28T08:43:53;97359.28;;;15.88;42.70
71889;BME280;59762;49.998;14.858;2023-04-28T08:46:20;97344.63;;;15.34;43.63
71889;BME280;59762;49.998;14.858;2023-04-28T08:48:48;97343.94;;;15.47;43.23
71889;BME280;59762;49.998;14.858;2023-04-28T08:51:15;97344.84;;;15.54;42.63
71889;BME280;59762;49.998;14.858;2023-04-28T08:53:45;97339.06;;;15.57;41.60
71889;BME280;59762;49.998;14.858;2023-04-28T08:56:15;97345.38;;;15.85;41.41
71889;BME280;59762;49.998;14.858;2023-04-28T08:58:42;97345.81;;;15.88;41.11
71889;BME280;59762;49.998;14.858;2023-04-28T09:01:08;97345.97;;;16.29;40.77
71889;BME280;59762;49.998;14.858;2023-04-28T09:03:34;97348.44;;;16.24;40.33
71889;BME280;59762;49.998;14.858;2023-04-28T09:06:00;97344.75;;;16.31;39.97
71889;BME280;59762;49.998;14.858;2023-04-28T09:08:27;97341.38;;;16.44;39.96
71889;BME280;59762;49.998;14.858;2023-04-28T09:11:08;97346.97;;;15.79;39.67
71889;BME280;59762;49.998;14.858;2023-04-28T09:13:35;97340.81;;;15.43;40.43
71889;BME280;59762;49.998;14.858;2023-04-28T09:16:02;97346.66;;;15.68;40.37
71889;BME280;59762;49.998;14.858;2023-04-28T09:18:29;97340.19;;;15.83;42.70
71889;BME280;59762;49.998;14.858;2023-04-28T09:21:08;97344.97;;;16.57;40.35
71889;BME280;59762;49.998;14.858;2023-04-28T09:23:45;97342.47;;;16.56;39.84
71889;BME280;59762;49.998;14.858;2023-04-28T09:26:12;97331.41;;;16.44;39.46
71889;BME280;59762;49.998;14.858;2023-04-28T09:28:38;97314.13;;;17.07;38.80
71889;BME280;59762;49.998;14.858;2023-04-28T09:31:04;97314.09;;;16.60;38.90
71889;BME280;59762;49.998;14.858;2023-04-28T09:33:30;97306.78;;;16.81;40.79
71889;BME280;59762;49.998;14.858;2023-04-28T09:35:55;97315.81;;;16.12;41.65
71889;BME280;59762;49.998;14.858;2023-04-28T09:38:22;97315.44;;;16.77;41.79
71889;BME280;59762;49.998;14.858;2023-04-28T09:41:06;97312.28;;;17.07;39.63
71889;BME280;59762;49.998;14.858;2023-04-28T09:43:33;97321.91;;;16.48;39.43
71889;BME280;59762;49.998;14.858;2023-04-28T09:46:01;97320.06;;;15.79;38.17
71889;BME280;59762;49.998;14.858;2023-04-28T09:48:31;97314.91;;;15.84;39.08
71889;BME280;59762;49.998;14.858;2023-04-28T09:50:58;97311.03;;;16.14;40.27
71889;BME280;59762;49.998;14.858;2023-04-28T09:53:26;97304.03;;;15.71;39.53
71889;BME280;59762;49.998;14.858;2023-04-28T09:55:53;97300.44;;;15.85;38.54
71889;BME280;59762;49.998;14.858;2023-04-28T09:58:20;97309.50;;;16.05;39.00
71889;BME280;59762;49.998;14.858;2023-04-28T10:00:55;97304.56;;;15.81;39.99
71889;BME280;59762;49.998;14.858;2023-04-28T10:03:23;97298.63;;;15.71;40.34
71889;BME280;59762;49.998;14.858;2023-04-28T10:05:50;97305.31;;;15.54;40.30
71889;BME280;59762;49.998;14.858;2023-04-28T10:08:22;97301.75;;;15.68;40.10
71889;BME280;59762;49.998;14.858;2023-04-28T10:10:48;97304.13;;;16.05;39.79
71889;BME280;59762;49.998;14.858;2023-04-28T10:13:21;97297.03;;;16.25;42.09
71889;BME280;59762;49.998;14.858;2023-04-28T10:15:47;97291.53;;;16.67;40.95
71889;BME280;59762;49.998;14.858;2023-04-28T10:18:14;97283.00;;;16.36;38.62
71889;BME280;59762;49.998;14.858;2023-04-28T10:20:45;97270.19;;;16.11;39.14
71889;BME280;59762;49.998;14.858;2023-04-28T10:23:42;97268.03;;;16.55;38.46
71889;BME280;59762;49.998;14.858;2023-04-28T10:26:12;97265.00;;;17.18;39.32
71889;BME280;59762;49.998;14.858;2023-04-28T10:28:50;97267.97;;;15.93;39.04
71889;BME280;59762;49.998;14.858;2023-04-28T10:31:20;97279.22;;;16.24;38.90
71889;BME280;59762;49.998;14.858;2023-04-28T10:33:47;97263.69;;;16.26;38.69
71889;BME280;59762;49.998;14.858;2023-04-28T10:39:23;97270.38;;;16.64;37.49
71889;BME280;59762;49.998;14.858;2023-04-28T10:41:49;97260.75;;;16.21;38.25
71889;BME280;59762;49.998;14.858;2023-04-28T10:50:03;97243.94;;;15.43;39.95
71889;BME280;59762;49.998;14.858;2023-04-28T10:55:26;97239.91;;;15.54;41.76
71889;BME280;59762;49.998;14.858;2023-04-28T11:00:43;97238.78;;;15.27;42.79
71889;BME280;59762;49.998;14.858;2023-04-28T11:03:46;97237.94;;;15.06;41.49
71889;BME280;59762;49.998;14.858;2023-04-28T11:06:20;97243.72;;;15.24;42.59
71889;BME280;59762;49.998;14.858;2023-04-28T11:08:47;97240.84;;;14.89;42.07
71889;BME280;59762;49.998;14.858;2023-04-28T11:11:16;97240.06;;;14.95;43.16
71889;BME280;59762;49.998;14.858;2023-04-28T11:13:43;97246.75;;;15.35;43.35
71889;BME280;59762;49.998;14.858;2023-04-28T11:16:16;97247.19;;;15.39;42.25
71889;BME280;59762;49.998;14.858;2023-04-28T11:18:55;97246.03;;;15.48;42.50
71889;BME280;59762;49.998;14.858;2023-04-28T11:21:24;97251.47;;;15.33;41.73
71889;BME280;59762;49.998;14.858;2023-04-28T11:23:52;97249.91;;;15.03;40.38
71889;BME280;59762;49.998;14.858;2023-04-28T11:26:19;97248.84;;;15.19;41.61
71889;BME280;59762;49.998;14.858;2023-04-28T11:28:49;97259.78;;;15.53;41.54
71889;BME280;59762;49.998;14.858;2023-04-28T11:31:16;97253.41;;;15.60;40.34
71889;BME280;59762;49.998;14.858;2023-04-28T11:34:10;97257.84;;;15.11;41.21
71889;BME280;59762;49.998;14.858;2023-04-28T11:36:42;97250.69;;;15.18;43.01
71889;BME280;59762;49.998;14.858;2023-04-28T11:39:09;97258.44;;;15.42;42.24
71889;BME280;59762;49.998;14.858;2023-04-28T11:41:40;97250.16;;;15.08;42.13
71889;BME280;59762;49.998;14.858;2023-04-28T11:46:35;97245.38;;;15.25;43.62
71889;BME280;59762;49.998;14.858;2023-04-28T11:49:04;97251.41;;;15.27;43.86
71889;BME280;59762;49.998;14.858;2023-04-28T11:53:57;97252.06;;;15.14;42.45
71889;BME280;59762;49.998;14.858;2023-04-28T11:56:23;97248.00;;;15.18;44.05
71889;BME280;59762;49.998;14.858;2023-04-28T12:04:29;97242.09;;;15.08;45.66
71889;BME280;59762;49.998;14.858;2023-04-28T12:09:27;97245.19;;;14.90;45.62
71889;BME280;59762;49.998;14.858;2023-04-28T12:11:55;97244.34;;;14.40;46.18
71889;BME280;59762;49.998;14.858;2023-04-28T12:14:22;97237.75;;;14.42;46.35
71889;BME280;59762;49.998;14.858;2023-04-28T12:16:49;97241.56;;;14.33;47.86
71889;BME280;59762;49.998;14.858;2023-04-28T12:19:16;97245.63;;;14.44;47.94
71889;BME280;59762;49.998;14.858;2023-04-28T12:21:43;97249.16;;;14.30;49.23
71889;BME280;59762;49.998;14.858;2023-04-28T12:24:19;97249.38;;;14.06;49.50
71889;BME280;59762;49.998;14.858;2023-04-28T12:26:47;97252.91;;;14.06;51.44
71889;BME280;59762;49.998;14.858;2023-04-28T12:29:38;97262.78;;;13.77;53.52
71889;BME280;59762;49.998;14.858;2023-04-28T12:32:06;97260.56;;;13.80;56.78
71889;BME280;59762;49.998;14.858;2023-04-28T12:34:32;97254.34;;;13.80;58.15
71889;BME280;59762;49.998;14.858;2023-04-28T12:36:59;97259.13;;;13.70;58.86
71889;BME280;59762;49.998;14.858;2023-04-28T12:39:26;97262.25;;;13.59;60.05
71889;BME280;59762;49.998;14.858;2023-04-28T12:41:52;97264.53;;;13.84;61.69
71889;BME280;59762;49.998;14.858;2023-04-28T12:44:20;97259.78;;;13.72;60.86
71889;BME280;59762;49.998;14.858;2023-04-28T12:46:47;97262.00;;;13.46;63.14
71889;BME280;59762;49.998;14.858;2023-04-28T12:49:12;97262.91;;;13.38;65.68
71889;BME280;59762;49.998;14.858;2023-04-28T12:51:40;97270.19;;;13.30;66.79
71889;BME280;59762;49.998;14.858;2023-04-28T12:54:06;97267.44;;;13.15;66.68
71889;BME280;59762;49.998;14.858;2023-04-28T12:56:31;97266.53;;;13.00;68.16
71889;BME280;59762;49.998;14.858;2023-04-28T12:58:57;97266.06;;;12.89;67.46
71889;BME280;59762;49.998;14.858;2023-04-28T13:01:24;97263.50;;;12.95;70.94
71889;BME280;59762;49.998;14.858;2023-04-28T13:03:49;97260.59;;;13.13;68.58
71889;BME280;59762;49.998;14.858;2023-04-28T13:06:17;97262.38;;;12.90;71.29
71889;BME280;59762;49.998;14.858;2023-04-28T13:08:43;97262.56;;;12.88;70.60
71889;BME280;59762;49.998;14.858;2023-04-28T13:11:09;97263.38;;;12.89;71.53
71889;BME280;59762;49.998;14.858;2023-04-28T13:13:35;97256.06;;;12.83;72.97
71889;BME280;59762;49.998;14.858;2023-04-28T13:16:01;97252.47;;;12.68;71.99
71889;BME280;59762;49.998;14.858;2023-04-28T13:18:29;97253.09;;;12.70;73.39
71889;BME280;59762;49.998;14.858;2023-04-28T13:20:55;97258.78;;;12.75;73.60